sensor_id;sensor_type;location;lat;lon;timestamp;temperature;humidity
27779;DHT22;30234;48.090;11.464;2022-07-24T00:03:14;19.90;99.90
27779;DHT22;30234;48.090;11.464;2022-07-24T00:07:15;19.80;99.90
27779;DHT22;30234;48.090;11.464;2022-07-24T00:11:17;19.80;99.90
27779;DHT22;30234;48.090;11.464;2022-07-24T00:15:21;19.70;99.90
27779;DHT22;30234;48.090;11.464;2022-07-24T00:19:22;19.70;99.90
27779;DHT22;30234;48.090;11.464;2022-07-24T00:23:23;19.70;99.90
27779;DHT22;30234;48.090;11.464;2022-07-24T00:27:24;19.70;99.90
27779;DHT22;30234;48.090;11.464;2022-07-24T00:31:26;19.60;99.90
27779;DHT22;30234;48.090;11.464;2022-07-24T00:35:35;19.50;99.90
27779;DHT22;30234;48.090;11.464;2022-07-24T00:39:36;19.40;99.90
27779;DHT22;30234;48.090;11.464;2022-07-24T00:48:02;19.50;99.90
27779;DHT22;30234;48.090;11.464;2022-07-24T00:52:03;19.60;99.90
27779;DHT22;30234;48.090;11.464;2022-07-24T00:56:04;19.70;99.90
27779;DHT22;30234;48.090;11.464;2022-07-24T01:00:06;19.80;99.90
27779;DHT22;30234;48.090;11.464;2022-07-24T01:04:08;19.70;99.90
27779;DHT22;30234;48.090;11.464;2022-07-24T01:08:09;19.60;99.90
27779;DHT22;30234;48.090;11.464;2022-07-24T01:12:10;19.60;99.90
27779;DHT22;30234;48.090;11.464;2022-07-24T01:16:12;19.60;99.90
27779;DHT22;30234;48.090;11.464;2022-07-24T01:20:13;19.70;99.90
27779;DHT22;30234;48.090;11.464;2022-07-24T01:24:14;19.70;99.90
27779;DHT22;30234;48.090;11.464;2022-07-24T01:28:15;19.60;99.90
27779;DHT22;30234;48.090;11.464;2022-07-24T01:32:16;19.50;99.90
27779;DHT22;30234;48.090;11.464;2022-07-24T01:36:17;19.50;99.90
27779;DHT22;30234;48.090;11.464;2022-07-24T01:40:21;19.60;99.90
27779;DHT22;30234;48.090;11.464;2022-07-24T01:44:23;19.50;99.90
27779;DHT22;30234;48.090;11.464;2022-07-24T01:48:23;19.40;99.90
27779;DHT22;30234;48.090;11.464;2022-07-24T01:52:24;19.40;99.90
27779;DHT22;30234;48.090;11.464;2022-07-24T01:56:25;19.40;99.90
27779;DHT22;30234;48.090;11.464;2022-07-24T02:00:26;19.30;99.90
27779;DHT22;30234;48.090;11.464;2022-07-24T02:04:27;19.30;99.90
27779;DHT22;30234;48.090;11.464;2022-07-24T02:08:28;19.20;99.90
27779;DHT22;30234;48.090;11.464;2022-07-24T02:12:29;19.20;99.90
27779;DHT22;30234;48.090;11.464;2022-07-24T02:16:29;19.20;99.90
27779;DHT22;30234;48.090;11.464;2022-07-24T02:20:30;19.10;99.90
27779;DHT22;30234;48.090;11.464;2022-07-24T02:24:31;19.00;99.90
27779;DHT22;30234;48.090;11.464;2022-07-24T02:28:32;19.00;99.90
27779;DHT22;30234;48.090;11.464;2022-07-24T02:32:33;18.80;99.90
27779;DHT22;30234;48.090;11.464;2022-07-24T02:36:34;18.60;99.90
27779;DHT22;30234;48.090;11.464;2022-07-24T02:40:34;18.40;99.90
27779;DHT22;30234;48.090;11.464;2022-07-24T02:44:35;18.50;99.90
27779;DHT22;30234;48.090;11.464;2022-07-24T02:48:36;18.50;99.90
27779;DHT22;30234;48.090;11.464;2022-07-24T02:52:37;18.40;99.90
27779;DHT22;30234;48.090;11.464;2022-07-24T02:56:37;18.30;99.90
27779;DHT22;30234;48.090;11.464;2022-07-24T03:00:38;18.20;99.90
27779;DHT22;30234;48.090;11.464;2022-07-24T03:04:39;18.00;99.90
27779;DHT22;30234;48.090;11.464;2022-07-24T03:08:39;17.90;99.90
27779;DHT22;30234;48.090;11.464;2022-07-24T03:12:41;17.70;99.90
27779;DHT22;30234;48.090;11.464;2022-07-24T03:16:42;17.60;99.90
27779;DHT22;30234;48.090;11.464;2022-07-24T03:20:43;17.60;99.90
27779;DHT22;30234;48.090;11.464;2022-07-24T03:24:43;17.50;99.90
27779;DHT22;30234;48.090;11.464;2022-07-24T03:28:44;17.40;99.90
27779;DHT22;30234;48.090;11.464;2022-07-24T03:32:45;17.30;99.90
27779;DHT22;30234;48.090;11.464;2022-07-24T03:36:46;17.10;99.90
27779;DHT22;30234;48.090;11.464;2022-07-24T03:40:47;17.00;99.90
27779;DHT22;30234;48.090;11.464;2022-07-24T03:44:48;17.00;99.90
27779;DHT22;30234;48.090;11.464;2022-07-24T03:48:48;17.00;99.90
27779;DHT22;30234;48.090;11.464;2022-07-24T03:52:50;16.90;99.90
27779;DHT22;30234;48.090;11.464;2022-07-24T03:56:51;16.70;99.90
27779;DHT22;30234;48.090;11.464;2022-07-24T04:00:52;16.70;99.90
27779;DHT22;30234;48.090;11.464;2022-07-24T04:04:53;16.70;99.90
27779;DHT22;30234;48.090;11.464;2022-07-24T04:08:53;16.80;99.90
27779;DHT22;30234;48.090;11.464;2022-07-24T04:12:54;16.80;99.90
27779;DHT22;30234;48.090;11.464;2022-07-24T04:16:56;16.80;99.90
27779;DHT22;30234;48.090;11.464;2022-07-24T04:20:57;17.00;99.90
27779;DHT22;30234;48.090;11.464;2022-07-24T04:24:57;17.10;99.90
27779;DHT22;30234;48.090;11.464;2022-07-24T04:28:58;17.30;99.90
27779;DHT22;30234;48.090;11.464;2022-07-24T04:32:59;17.60;99.90
27779;DHT22;30234;48.090;11.464;2022-07-24T04:37:00;18.20;99.90
27779;DHT22;30234;48.090;11.464;2022-07-24T04:41:02;19.30;99.90
27779;DHT22;30234;48.090;11.464;2022-07-24T04:45:03;20.40;99.90
27779;DHT22;30234;48.090;11.464;2022-07-24T04:49:05;21.00;99.90
27779;DHT22;30234;48.090;11.464;2022-07-24T04:53:06;21.50;99.90
27779;DHT22;30234;48.090;11.464;2022-07-24T04:57:06;22.80;99.90
27779;DHT22;30234;48.090;11.464;2022-07-24T05:01:07;24.60;99.90
27779;DHT22;30234;48.090;11.464;2022-07-24T05:05:08;25.90;99.90
27779;DHT22;30234;48.090;11.464;2022-07-24T05:09:09;24.80;99.90
27779;DHT22;30234;48.090;11.464;2022-07-24T05:13:09;23.80;99.90
27779;DHT22;30234;48.090;11.464;2022-07-24T05:17:10;23.20;99.90
27779;DHT22;30234;48.090;11.464;2022-07-24T05:21:11;22.80;99.90
27779;DHT22;30234;48.090;11.464;2022-07-24T05:25:12;24.20;99.90
27779;DHT22;30234;48.090;11.464;2022-07-24T05:29:12;24.30;99.90
27779;DHT22;30234;48.090;11.464;2022-07-24T05:33:13;24.30;99.90
27779;DHT22;30234;48.090;11.464;2022-07-24T05:37:14;23.90;99.90
27779;DHT22;30234;48.090;11.464;2022-07-24T05:41:14;25.80;99.90
27779;DHT22;30234;48.090;11.464;2022-07-24T05:45:15;28.40;99.90
27779;DHT22;30234;48.090;11.464;2022-07-24T05:49:16;30.30;99.90
27779;DHT22;30234;48.090;11.464;2022-07-24T05:53:17;31.60;99.90
27779;DHT22;30234;48.090;11.464;2022-07-24T05:57:17;32.40;99.90
27779;DHT22;30234;48.090;11.464;2022-07-24T06:01:18;32.90;96.60
27779;DHT22;30234;48.090;11.464;2022-07-24T06:05:19;33.50;94.60
27779;DHT22;30234;48.090;11.464;2022-07-24T06:09:19;34.10;91.50
27779;DHT22;30234;48.090;11.464;2022-07-24T06:13:20;34.90;87.10
27779;DHT22;30234;48.090;11.464;2022-07-24T06:17:21;34.80;82.90
27779;DHT22;30234;48.090;11.464;2022-07-24T06:21:22;35.10;80.30
27779;DHT22;30234;48.090;11.464;2022-07-24T06:25:23;35.70;77.70
27779;DHT22;30234;48.090;11.464;2022-07-24T06:29:23;36.50;74.70
27779;DHT22;30234;48.090;11.464;2022-07-24T06:33:24;36.20;71.10
27779;DHT22;30234;48.090;11.464;2022-07-24T06:37:25;36.50;70.40
27779;DHT22;30234;48.090;11.464;2022-07-24T06:41:26;37.80;66.60
27779;DHT22;30234;48.090;11.464;2022-07-24T06:45:26;38.50;62.50
27779;DHT22;30234;48.090;11.464;2022-07-24T06:49:27;38.70;60.50
27779;DHT22;30234;48.090;11.464;2022-07-24T06:53:28;39.00;58.70
27779;DHT22;30234;48.090;11.464;2022-07-24T06:57:29;39.40;56.90
27779;DHT22;30234;48.090;11.464;2022-07-24T07:01:29;39.40;55.60
27779;DHT22;30234;48.090;11.464;2022-07-24T07:05:30;39.50;54.80
27779;DHT22;30234;48.090;11.464;2022-07-24T07:09:31;39.30;53.60
27779;DHT22;30234;48.090;11.464;2022-07-24T07:13:31;39.10;53.90
27779;DHT22;30234;48.090;11.464;2022-07-24T07:17:32;39.70;53.20
27779;DHT22;30234;48.090;11.464;2022-07-24T07:21:33;39.20;51.60
27779;DHT22;30234;48.090;11.464;2022-07-24T07:25:34;40.70;49.60
27779;DHT22;30234;48.090;11.464;2022-07-24T07:29:34;40.60;48.30
27779;DHT22;30234;48.090;11.464;2022-07-24T07:33:35;41.00;48.10
27779;DHT22;30234;48.090;11.464;2022-07-24T07:37:36;40.50;47.50
27779;DHT22;30234;48.090;11.464;2022-07-24T07:41:37;40.60;47.30
27779;DHT22;30234;48.090;11.464;2022-07-24T07:45:37;41.60;45.40
27779;DHT22;30234;48.090;11.464;2022-07-24T07:49:38;38.60;46.50
27779;DHT22;30234;48.090;11.464;2022-07-24T07:53:39;38.50;49.10
27779;DHT22;30234;48.090;11.464;2022-07-24T07:57:40;38.90;47.40
27779;DHT22;30234;48.090;11.464;2022-07-24T08:01:41;39.00;47.30
27779;DHT22;30234;48.090;11.464;2022-07-24T08:05:42;40.20;46.00
27779;DHT22;30234;48.090;11.464;2022-07-24T08:09:43;41.50;44.30
27779;DHT22;30234;48.090;11.464;2022-07-24T08:13:44;39.40;45.10
27779;DHT22;30234;48.090;11.464;2022-07-24T08:17:44;39.50;45.00
27779;DHT22;30234;48.090;11.464;2022-07-24T08:21:45;39.60;44.50
27779;DHT22;30234;48.090;11.464;2022-07-24T08:25:47;40.60;43.70
27779;DHT22;30234;48.090;11.464;2022-07-24T08:29:47;41.40;43.60
27779;DHT22;30234;48.090;11.464;2022-07-24T08:33:48;41.90;41.90
27779;DHT22;30234;48.090;11.464;2022-07-24T08:37:49;41.00;41.10
27779;DHT22;30234;48.090;11.464;2022-07-24T08:41:50;40.70;42.90
27779;DHT22;30234;48.090;11.464;2022-07-24T08:45:53;40.60;43.10
27779;DHT22;30234;48.090;11.464;2022-07-24T08:49:55;40.50;42.50
27779;DHT22;30234;48.090;11.464;2022-07-24T08:53:58;40.70;42.60
27779;DHT22;30234;48.090;11.464;2022-07-24T08:58:00;41.20;41.50
27779;DHT22;30234;48.090;11.464;2022-07-24T09:02:02;40.80;41.60
27779;DHT22;30234;48.090;11.464;2022-07-24T09:06:02;40.20;41.60
27779;DHT22;30234;48.090;11.464;2022-07-24T09:10:12;40.20;42.60
27779;DHT22;30234;48.090;11.464;2022-07-24T09:14:16;41.00;42.00
27779;DHT22;30234;48.090;11.464;2022-07-24T09:18:33;42.00;40.70
27779;DHT22;30234;48.090;11.464;2022-07-24T09:22:40;41.00;41.80
27779;DHT22;30234;48.090;11.464;2022-07-24T09:26:51;40.70;42.00
27779;DHT22;30234;48.090;11.464;2022-07-24T09:31:00;40.10;41.70
27779;DHT22;30234;48.090;11.464;2022-07-24T09:35:03;39.30;43.00
27779;DHT22;30234;48.090;11.464;2022-07-24T09:39:04;40.60;42.70
27779;DHT22;30234;48.090;11.464;2022-07-24T09:43:28;40.20;41.60
27779;DHT22;30234;48.090;11.464;2022-07-24T09:47:33;39.80;41.60
27779;DHT22;30234;48.090;11.464;2022-07-24T09:51:35;40.40;41.50
27779;DHT22;30234;48.090;11.464;2022-07-24T09:55:36;40.70;40.50
27779;DHT22;30234;48.090;11.464;2022-07-24T09:59:37;40.60;40.50
27779;DHT22;30234;48.090;11.464;2022-07-24T10:03:40;39.80;40.30
27779;DHT22;30234;48.090;11.464;2022-07-24T10:07:44;39.40;41.90
27779;DHT22;30234;48.090;11.464;2022-07-24T10:11:50;37.30;43.10
27779;DHT22;30234;48.090;11.464;2022-07-24T10:20:30;34.20;48.30
27779;DHT22;30234;48.090;11.464;2022-07-24T10:29:12;34.00;49.50
27779;DHT22;30234;48.090;11.464;2022-07-24T10:33:17;35.10;47.80
27779;DHT22;30234;48.090;11.464;2022-07-24T10:37:57;36.10;47.10
27779;DHT22;30234;48.090;11.464;2022-07-24T10:42:04;37.90;43.30
27779;DHT22;30234;48.090;11.464;2022-07-24T10:50:07;37.10;44.10
27779;DHT22;30234;48.090;11.464;2022-07-24T10:54:17;37.50;44.60
27779;DHT22;30234;48.090;11.464;2022-07-24T10:58:18;38.40;41.50
27779;DHT22;30234;48.090;11.464;2022-07-24T11:02:27;36.70;44.30
27779;DHT22;30234;48.090;11.464;2022-07-24T11:11:38;37.50;43.80
27779;DHT22;30234;48.090;11.464;2022-07-24T11:20:14;37.60;44.50
27779;DHT22;30234;48.090;11.464;2022-07-24T11:28:19;37.10;43.20
27779;DHT22;30234;48.090;11.464;2022-07-24T11:32:20;36.90;44.60
27779;DHT22;30234;48.090;11.464;2022-07-24T11:36:21;35.20;44.40
27779;DHT22;30234;48.090;11.464;2022-07-24T11:40:22;35.60;45.30
27779;DHT22;30234;48.090;11.464;2022-07-24T11:44:28;36.30;43.70
27779;DHT22;30234;48.090;11.464;2022-07-24T11:48:29;35.50;44.70
27779;DHT22;30234;48.090;11.464;2022-07-24T11:52:40;35.70;43.90
27779;DHT22;30234;48.090;11.464;2022-07-24T11:56:41;35.00;45.30
27779;DHT22;30234;48.090;11.464;2022-07-24T12:00:42;33.80;46.80
27779;DHT22;30234;48.090;11.464;2022-07-24T12:04:44;33.40;47.60
27779;DHT22;30234;48.090;11.464;2022-07-24T12:08:45;33.40;46.90
27779;DHT22;30234;48.090;11.464;2022-07-24T12:12:49;33.10;46.80
27779;DHT22;30234;48.090;11.464;2022-07-24T12:16:53;33.50;46.60
27779;DHT22;30234;48.090;11.464;2022-07-24T12:21:01;33.40;47.10
27779;DHT22;30234;48.090;11.464;2022-07-24T12:25:03;33.80;48.00
27779;DHT22;30234;48.090;11.464;2022-07-24T12:29:08;34.70;45.90
27779;DHT22;30234;48.090;11.464;2022-07-24T12:33:27;35.60;43.30
27779;DHT22;30234;48.090;11.464;2022-07-24T12:37:29;35.70;44.10
27779;DHT22;30234;48.090;11.464;2022-07-24T12:41:31;35.40;44.70
27779;DHT22;30234;48.090;11.464;2022-07-24T12:45:32;35.40;43.90
27779;DHT22;30234;48.090;11.464;2022-07-24T12:49:43;35.40;45.10
27779;DHT22;30234;48.090;11.464;2022-07-24T12:53:55;35.60;44.00
27779;DHT22;30234;48.090;11.464;2022-07-24T12:58:01;36.50;42.50
27779;DHT22;30234;48.090;11.464;2022-07-24T13:02:09;36.80;41.80
27779;DHT22;30234;48.090;11.464;2022-07-24T13:06:15;37.20;41.90
27779;DHT22;30234;48.090;11.464;2022-07-24T13:10:17;37.40;40.80
27779;DHT22;30234;48.090;11.464;2022-07-24T13:14:20;36.70;41.20
27779;DHT22;30234;48.090;11.464;2022-07-24T13:18:21;36.00;43.10
27779;DHT22;30234;48.090;11.464;2022-07-24T13:22:22;36.70;42.50
27779;DHT22;30234;48.090;11.464;2022-07-24T13:26:23;37.00;41.80
27779;DHT22;30234;48.090;11.464;2022-07-24T13:30:24;36.50;41.70
27779;DHT22;30234;48.090;11.464;2022-07-24T13:34:25;34.90;43.30
27779;DHT22;30234;48.090;11.464;2022-07-24T13:38:26;34.40;44.40
27779;DHT22;30234;48.090;11.464;2022-07-24T13:42:26;34.30;43.80
27779;DHT22;30234;48.090;11.464;2022-07-24T13:46:27;33.20;45.70
27779;DHT22;30234;48.090;11.464;2022-07-24T13:50:29;32.50;46.40
27779;DHT22;30234;48.090;11.464;2022-07-24T13:54:30;32.80;46.80
27779;DHT22;30234;48.090;11.464;2022-07-24T13:58:31;33.20;47.00
27779;DHT22;30234;48.090;11.464;2022-07-24T14:02:31;33.60;46.00
27779;DHT22;30234;48.090;11.464;2022-07-24T14:06:32;33.60;45.30
27779;DHT22;30234;48.090;11.464;2022-07-24T14:10:35;33.10;45.70
27779;DHT22;30234;48.090;11.464;2022-07-24T14:14:35;33.90;45.30
27779;DHT22;30234;48.090;11.464;2022-07-24T14:18:36;33.80;44.60
27779;DHT22;30234;48.090;11.464;2022-07-24T14:22:38;34.30;44.50
27779;DHT22;30234;48.090;11.464;2022-07-24T14:26:41;35.10;43.50
27779;DHT22;30234;48.090;11.464;2022-07-24T14:30:42;35.50;43.10
27779;DHT22;30234;48.090;11.464;2022-07-24T14:34:43;34.90;43.30
27779;DHT22;30234;48.090;11.464;2022-07-24T14:38:43;34.10;44.30
27779;DHT22;30234;48.090;11.464;2022-07-24T14:42:44;33.60;44.80
27779;DHT22;30234;48.090;11.464;2022-07-24T14:46:45;34.40;44.30
27779;DHT22;30234;48.090;11.464;2022-07-24T14:50:46;34.90;43.40
27779;DHT22;30234;48.090;11.464;2022-07-24T14:54:47;34.60;43.10
27779;DHT22;30234;48.090;11.464;2022-07-24T14:58:48;34.70;43.50
27779;DHT22;30234;48.090;11.464;2022-07-24T15:02:49;34.50;43.60
27779;DHT22;30234;48.090;11.464;2022-07-24T15:06:50;33.90;45.00
27779;DHT22;30234;48.090;11.464;2022-07-24T15:10:50;33.90;44.10
27779;DHT22;30234;48.090;11.464;2022-07-24T15:14:51;34.60;43.00
27779;DHT22;30234;48.090;11.464;2022-07-24T15:18:52;35.50;41.70
27779;DHT22;30234;48.090;11.464;2022-07-24T15:22:53;35.40;43.00
27779;DHT22;30234;48.090;11.464;2022-07-24T15:26:54;34.60;42.50
27779;DHT22;30234;48.090;11.464;2022-07-24T15:30:55;33.60;44.50
27779;DHT22;30234;48.090;11.464;2022-07-24T15:34:55;33.50;44.80
27779;DHT22;30234;48.090;11.464;2022-07-24T15:38:56;33.80;43.90
27779;DHT22;30234;48.090;11.464;2022-07-24T15:42:58;33.60;44.10
27779;DHT22;30234;48.090;11.464;2022-07-24T15:46:59;33.70;44.60
27779;DHT22;30234;48.090;11.464;2022-07-24T15:51:00;33.80;44.40
27779;DHT22;30234;48.090;11.464;2022-07-24T15:55:01;33.70;43.90
27779;DHT22;30234;48.090;11.464;2022-07-24T15:59:01;33.40;45.00
27779;DHT22;30234;48.090;11.464;2022-07-24T16:03:02;33.80;44.90
27779;DHT22;30234;48.090;11.464;2022-07-24T16:07:03;33.40;45.30
27779;DHT22;30234;48.090;11.464;2022-07-24T16:11:04;33.40;45.20
27779;DHT22;30234;48.090;11.464;2022-07-24T16:15:05;33.30;45.10
27779;DHT22;30234;48.090;11.464;2022-07-24T16:19:06;33.20;45.50
27779;DHT22;30234;48.090;11.464;2022-07-24T16:23:07;33.30;45.20
27779;DHT22;30234;48.090;11.464;2022-07-24T16:27:07;33.10;45.80
27779;DHT22;30234;48.090;11.464;2022-07-24T16:31:08;32.60;46.50
27779;DHT22;30234;48.090;11.464;2022-07-24T16:35:09;32.50;47.00
27779;DHT22;30234;48.090;11.464;2022-07-24T16:39:10;32.20;47.30
27779;DHT22;30234;48.090;11.464;2022-07-24T16:43:11;31.80;48.30
27779;DHT22;30234;48.090;11.464;2022-07-24T16:47:11;31.40;48.40
27779;DHT22;30234;48.090;11.464;2022-07-24T16:51:12;31.60;48.40
27779;DHT22;30234;48.090;11.464;2022-07-24T16:55:14;31.60;48.40
27779;DHT22;30234;48.090;11.464;2022-07-24T16:59:15;31.20;48.90
27779;DHT22;30234;48.090;11.464;2022-07-24T17:03:16;31.00;49.50
27779;DHT22;30234;48.090;11.464;2022-07-24T17:07:17;31.10;49.40
27779;DHT22;30234;48.090;11.464;2022-07-24T17:11:18;31.00;49.30
27779;DHT22;30234;48.090;11.464;2022-07-24T17:15:19;30.70;50.50
27779;DHT22;30234;48.090;11.464;2022-07-24T17:19:20;30.40;50.80
27779;DHT22;30234;48.090;11.464;2022-07-24T17:23:20;30.40;51.00
27779;DHT22;30234;48.090;11.464;2022-07-24T17:27:21;30.50;50.90
27779;DHT22;30234;48.090;11.464;2022-07-24T17:31:22;30.30;51.50
27779;DHT22;30234;48.090;11.464;2022-07-24T17:35:24;29.90;51.90
27779;DHT22;30234;48.090;11.464;2022-07-24T17:39:25;29.60;52.90
27779;DHT22;30234;48.090;11.464;2022-07-24T17:43:26;29.40;53.10
27779;DHT22;30234;48.090;11.464;2022-07-24T17:47:27;29.20;54.30
27779;DHT22;30234;48.090;11.464;2022-07-24T17:51:28;29.00;54.60
27779;DHT22;30234;48.090;11.464;2022-07-24T17:55:29;28.80;55.40
27779;DHT22;30234;48.090;11.464;2022-07-24T17:59:29;28.70;55.30
27779;DHT22;30234;48.090;11.464;2022-07-24T18:03:30;28.50;55.60
27779;DHT22;30234;48.090;11.464;2022-07-24T18:07:31;28.40;56.30
27779;DHT22;30234;48.090;11.464;2022-07-24T18:11:32;28.30;56.40
27779;DHT22;30234;48.090;11.464;2022-07-24T18:15:32;28.10;56.80
27779;DHT22;30234;48.090;11.464;2022-07-24T18:19:33;27.90;57.00
27779;DHT22;30234;48.090;11.464;2022-07-24T18:23:36;27.80;57.50
27779;DHT22;30234;48.090;11.464;2022-07-24T18:27:37;27.70;57.90
27779;DHT22;30234;48.090;11.464;2022-07-24T18:31:37;27.40;58.80
27779;DHT22;30234;48.090;11.464;2022-07-24T18:35:38;27.20;59.20
27779;DHT22;30234;48.090;11.464;2022-07-24T18:39:39;27.10;59.60
27779;DHT22;30234;48.090;11.464;2022-07-24T18:43:41;26.90;60.10
27779;DHT22;30234;48.090;11.464;2022-07-24T18:47:42;26.70;60.70
27779;DHT22;30234;48.090;11.464;2022-07-24T18:51:42;26.60;61.30
27779;DHT22;30234;48.090;11.464;2022-07-24T18:55:46;26.50;62.00
27779;DHT22;30234;48.090;11.464;2022-07-24T18:59:46;26.40;62.20
27779;DHT22;30234;48.090;11.464;2022-07-24T19:03:48;26.20;62.80
27779;DHT22;30234;48.090;11.464;2022-07-24T19:07:49;26.00;63.60
27779;DHT22;30234;48.090;11.464;2022-07-24T19:11:50;25.70;64.70
27779;DHT22;30234;48.090;11.464;2022-07-24T19:15:51;25.50;65.40
27779;DHT22;30234;48.090;11.464;2022-07-24T19:19:51;25.30;66.30
27779;DHT22;30234;48.090;11.464;2022-07-24T19:23:52;25.00;67.20
27779;DHT22;30234;48.090;11.464;2022-07-24T19:27:53;24.70;68.30
27779;DHT22;30234;48.090;11.464;2022-07-24T19:31:54;24.40;70.60
27779;DHT22;30234;48.090;11.464;2022-07-24T19:35:58;24.20;70.40
27779;DHT22;30234;48.090;11.464;2022-07-24T19:39:58;24.10;71.70
27779;DHT22;30234;48.090;11.464;2022-07-24T19:43:59;23.80;72.60
27779;DHT22;30234;48.090;11.464;2022-07-24T19:48:00;23.60;73.70
27779;DHT22;30234;48.090;11.464;2022-07-24T19:52:01;23.60;74.30
27779;DHT22;30234;48.090;11.464;2022-07-24T19:56:03;23.40;75.00
27779;DHT22;30234;48.090;11.464;2022-07-24T20:00:05;23.20;75.80
27779;DHT22;30234;48.090;11.464;2022-07-24T20:04:08;23.10;76.80
27779;DHT22;30234;48.090;11.464;2022-07-24T20:08:09;23.10;77.70
27779;DHT22;30234;48.090;11.464;2022-07-24T20:12:09;22.90;78.10
27779;DHT22;30234;48.090;11.464;2022-07-24T20:16:10;22.70;79.10
27779;DHT22;30234;48.090;11.464;2022-07-24T20:20:11;22.60;79.50
27779;DHT22;30234;48.090;11.464;2022-07-24T20:24:12;22.60;80.60
27779;DHT22;30234;48.090;11.464;2022-07-24T20:28:12;22.50;81.80
27779;DHT22;30234;48.090;11.464;2022-07-24T20:32:13;22.30;83.40
27779;DHT22;30234;48.090;11.464;2022-07-24T20:36:14;22.10;85.20
27779;DHT22;30234;48.090;11.464;2022-07-24T20:40:15;21.90;87.30
27779;DHT22;30234;48.090;11.464;2022-07-24T20:44:16;21.80;90.00
27779;DHT22;30234;48.090;11.464;2022-07-24T20:48:17;21.70;91.00
27779;DHT22;30234;48.090;11.464;2022-07-24T20:52:17;21.60;92.50
27779;DHT22;30234;48.090;11.464;2022-07-24T20:56:18;21.50;94.20
27779;DHT22;30234;48.090;11.464;2022-07-24T21:00:19;21.40;96.50
27779;DHT22;30234;48.090;11.464;2022-07-24T21:04:20;21.30;98.90
27779;DHT22;30234;48.090;11.464;2022-07-24T21:08:21;21.10;99.90
27779;DHT22;30234;48.090;11.464;2022-07-24T21:12:23;20.90;99.90
27779;DHT22;30234;48.090;11.464;2022-07-24T21:16:24;20.80;99.90
27779;DHT22;30234;48.090;11.464;2022-07-24T21:20:25;20.80;99.90
27779;DHT22;30234;48.090;11.464;2022-07-24T21:24:25;20.70;99.90
27779;DHT22;30234;48.090;11.464;2022-07-24T21:28:26;20.50;99.90
27779;DHT22;30234;48.090;11.464;2022-07-24T21:32:27;20.40;99.90
27779;DHT22;30234;48.090;11.464;2022-07-24T21:36:27;20.30;99.90
27779;DHT22;30234;48.090;11.464;2022-07-24T21:40:28;20.20;99.90
27779;DHT22;30234;48.090;11.464;2022-07-24T21:44:29;20.10;99.90
27779;DHT22;30234;48.090;11.464;2022-07-24T21:48:30;20.00;99.90
27779;DHT22;30234;48.090;11.464;2022-07-24T21:52:31;19.90;99.90
27779;DHT22;30234;48.090;11.464;2022-07-24T21:56:32;19.70;99.90
27779;DHT22;30234;48.090;11.464;2022-07-24T22:00:35;19.60;99.90
27779;DHT22;30234;48.090;11.464;2022-07-24T22:04:40;19.50;99.90
27779;DHT22;30234;48.090;11.464;2022-07-24T22:08:41;19.40;99.90
27779;DHT22;30234;48.090;11.464;2022-07-24T22:12:41;19.30;99.90
27779;DHT22;30234;48.090;11.464;2022-07-24T22:16:42;19.30;99.90
27779;DHT22;30234;48.090;11.464;2022-07-24T22:20:43;19.20;99.90
27779;DHT22;30234;48.090;11.464;2022-07-24T22:24:44;19.20;99.90
27779;DHT22;30234;48.090;11.464;2022-07-24T22:28:44;19.20;99.90
27779;DHT22;30234;48.090;11.464;2022-07-24T22:32:45;19.10;99.90
27779;DHT22;30234;48.090;11.464;2022-07-24T22:36:48;19.00;99.90
27779;DHT22;30234;48.090;11.464;2022-07-24T22:40:49;18.90;99.90
27779;DHT22;30234;48.090;11.464;2022-07-24T22:44:50;18.80;99.90
27779;DHT22;30234;48.090;11.464;2022-07-24T22:48:50;18.80;99.90
27779;DHT22;30234;48.090;11.464;2022-07-24T22:52:52;18.70;99.90
27779;DHT22;30234;48.090;11.464;2022-07-24T22:56:53;18.80;99.90
27779;DHT22;30234;48.090;11.464;2022-07-24T23:00:55;18.70;99.90
27779;DHT22;30234;48.090;11.464;2022-07-24T23:04:56;18.70;99.90
27779;DHT22;30234;48.090;11.464;2022-07-24T23:08:57;18.60;99.90
27779;DHT22;30234;48.090;11.464;2022-07-24T23:12:57;18.60;99.90
27779;DHT22;30234;48.090;11.464;2022-07-24T23:16:59;18.50;99.90
27779;DHT22;30234;48.090;11.464;2022-07-24T23:21:00;18.40;99.90
27779;DHT22;30234;48.090;11.464;2022-07-24T23:25:00;18.40;99.90
27779;DHT22;30234;48.090;11.464;2022-07-24T23:29:01;18.30;99.90
27779;DHT22;30234;48.090;11.464;2022-07-24T23:33:02;18.30;99.90
27779;DHT22;30234;48.090;11.464;2022-07-24T23:37:03;18.20;99.90
27779;DHT22;30234;48.090;11.464;2022-07-24T23:41:05;18.10;99.90
27779;DHT22;30234;48.090;11.464;2022-07-24T23:45:06;18.00;99.90
27779;DHT22;30234;48.090;11.464;2022-07-24T23:49:07;18.00;99.90
27779;DHT22;30234;48.090;11.464;2022-07-24T23:53:07;17.90;99.90
27779;DHT22;30234;48.090;11.464;2022-07-24T23:57:08;17.90;99.90
